Time;durP1;ratioP1;P1;durP2;ratioP2;P2;SDS_P1;SDS_P2;PMS_P1;PMS_P2;Temp;Humidity;BMP_temperature;BMP_pressure;BME280_temperature;BME280_humidity;BME280_pressure;Samples;Min_cycle;Max_cycle;Signal;HPM_P1;HPM_P2
2022/01/25 00:10:16;;;;;;;134.65;61.03;;;1.60;99.90;;;;;;5012504;28;20040;-47
2022/01/25 00:26:30;;;;;;;135.18;61.90;;;1.60;99.90;;;;;;5013534;28;20036;-47
2022/01/25 00:29:09;;;;;;;129.13;59.10;;;1.60;99.90;;;;;;5012687;28;20466;-47
2022/01/25 00:31:37;;;;;;;133.65;60.10;;;1.60;99.90;;;;;;5013211;28;20060;-47
2022/01/25 00:34:03;;;;;;;128.02;61.33;;;1.60;99.90;;;;;;5012762;28;20025;-47
2022/01/25 00:36:30;;;;;;;123.22;59.28;;;1.60;99.90;;;;;;5012807;28;20054;-47
2022/01/25 00:38:56;;;;;;;128.60;60.42;;;1.60;99.90;;;;;;5012580;28;20026;-47
2022/01/25 00:41:23;;;;;;;133.70;58.90;;;1.60;99.90;;;;;;5012486;28;20103;-47
2022/01/25 00:43:50;;;;;;;128.73;59.25;;;1.60;99.90;;;;;;5012486;28;20053;-47
2022/01/25 00:46:19;;;;;;;131.73;60.33;;;1.50;99.90;;;;;;5012341;28;20024;-47
2022/01/25 00:48:49;;;;;;;131.55;60.22;;;1.50;99.90;;;;;;5011879;28;20472;-47
2022/01/25 00:56:26;;;;;;;129.02;58.90;;;1.50;99.90;;;;;;5012085;28;20021;-47
2022/01/25 00:58:52;;;;;;;122.80;58.78;;;1.50;99.90;;;;;;5012387;28;20022;-47
2022/01/25 01:01:20;;;;;;;127.20;59.95;;;1.40;99.90;;;;;;5012400;28;20049;-47
2022/01/25 01:03:45;;;;;;;125.75;58.97;;;1.40;99.90;;;;;;5011929;28;20029;-47
2022/01/25 01:06:11;;;;;;;130.00;59.90;;;1.40;99.90;;;;;;5011758;28;20022;-47
2022/01/25 01:08:37;;;;;;;132.18;59.75;;;1.40;99.90;;;;;;5012150;28;20519;-47
2022/01/25 01:11:07;;;;;;;124.53;58.78;;;1.40;99.90;;;;;;5011731;28;20030;-47
2022/01/25 01:13:54;;;;;;;128.10;60.33;;;1.40;99.90;;;;;;5012496;28;20110;-47
2022/01/25 01:30:37;;;;;;;126.32;59.03;;;1.30;99.90;;;;;;5011320;28;20559;-47
2022/01/25 01:43:44;;;;;;;125.88;57.15;;;1.30;99.90;;;;;;5011515;28;20018;-47
2022/01/25 01:51:15;;;;;;;128.43;57.20;;;1.20;99.90;;;;;;5011213;28;20018;-47
2022/01/25 01:53:42;;;;;;;128.98;58.03;;;1.20;99.90;;;;;;5010238;28;20458;-47
2022/01/25 01:56:08;;;;;;;125.40;58.67;;;1.20;99.90;;;;;;5010582;28;20025;-47
2022/01/25 01:58:36;;;;;;;129.30;58.03;;;1.20;99.90;;;;;;5010953;28;20030;-47
2022/01/25 02:01:04;;;;;;;125.82;56.90;;;1.20;99.90;;;;;;5014390;28;20026;-47
2022/01/25 02:03:29;;;;;;;132.35;59.75;;;1.20;99.90;;;;;;5015353;28;20018;-47
2022/01/25 02:05:55;;;;;;;128.75;58.72;;;1.20;99.90;;;;;;5014462;28;20373;-47
2022/01/25 02:08:21;;;;;;;129.98;59.13;;;1.20;99.90;;;;;;5013173;28;20033;-47
2022/01/25 02:10:47;;;;;;;127.90;58.08;;;1.20;99.90;;;;;;5015094;28;20026;-47
2022/01/25 02:13:13;;;;;;;132.77;59.58;;;1.20;99.90;;;;;;5015817;28;20158;-47
2022/01/25 02:15:44;;;;;;;126.88;56.85;;;1.20;99.90;;;;;;5015241;28;20435;-47
2022/01/25 02:23:40;;;;;;;122.43;56.35;;;1.10;99.90;;;;;;5015166;28;20037;-47
2022/01/25 02:26:08;;;;;;;128.30;57.40;;;1.00;99.90;;;;;;5014693;28;20077;-47
2022/01/25 02:28:37;;;;;;;127.95;59.05;;;1.10;99.90;;;;;;5014745;28;20038;-47
2022/01/25 02:31:05;;;;;;;131.93;58.63;;;1.10;99.90;;;;;;5013797;28;20116;-47
2022/01/25 02:33:31;;;;;;;132.90;58.95;;;1.10;99.90;;;;;;5015330;28;20467;-47
2022/01/25 02:35:58;;;;;;;130.27;58.35;;;1.00;99.90;;;;;;5014500;28;20033;-47
2022/01/25 02:38:27;;;;;;;131.32;58.97;;;1.00;99.90;;;;;;5014524;28;20095;-47
2022/01/25 02:40:53;;;;;;;128.27;57.97;;;1.00;99.90;;;;;;5014615;28;20022;-47
2022/01/25 02:43:20;;;;;;;131.68;59.30;;;1.00;99.90;;;;;;5014958;28;20032;-47
2022/01/25 02:46:07;;;;;;;138.05;60.20;;;1.00;99.90;;;;;;5014706;28;20403;-46
2022/01/25 02:48:57;;;;;;;134.35;59.38;;;1.10;99.90;;;;;;5014453;28;20253;-47
2022/01/25 02:51:26;;;;;;;134.27;57.58;;;1.00;99.90;;;;;;5013150;28;20025;-46
2022/01/25 02:53:53;;;;;;;129.82;57.47;;;1.00;99.90;;;;;;5014560;28;20100;-47
2022/01/25 02:56:18;;;;;;;130.63;59.38;;;0.90;99.90;;;;;;5014295;28;20033;-47
2022/01/25 02:58:44;;;;;;;132.45;56.92;;;0.80;99.90;;;;;;5014233;28;20033;-47
2022/01/25 03:01:10;;;;;;;132.82;58.38;;;0.90;99.90;;;;;;5014299;28;20022;-47
2022/01/25 03:03:37;;;;;;;139.88;61.00;;;1.00;99.90;;;;;;5014325;28;20050;-47
2022/01/25 03:06:03;;;;;;;137.55;59.28;;;1.00;99.90;;;;;;5014164;28;20101;-47
2022/01/25 03:08:30;;;;;;;137.73;61.00;;;0.90;99.90;;;;;;5014015;28;20022;-47
2022/01/25 03:10:55;;;;;;;143.60;61.55;;;0.90;99.90;;;;;;5013223;28;20030;-47
2022/01/25 03:13:27;;;;;;;135.43;60.50;;;0.90;99.90;;;;;;5013885;28;20073;-47
2022/01/25 03:15:58;;;;;;;132.80;59.00;;;0.90;99.90;;;;;;5013633;28;20029;-46
2022/01/25 03:18:39;;;;;;;134.23;59.42;;;0.90;99.90;;;;;;5014120;28;20075;-47
2022/01/25 03:23:51;;;;;;;140.02;58.95;;;0.90;99.90;;;;;;5013897;28;20026;-47
2022/01/25 03:26:18;;;;;;;134.70;60.03;;;0.90;99.90;;;;;;5013974;28;20041;-47
2022/01/25 03:28:44;;;;;;;138.65;60.53;;;0.90;99.90;;;;;;5013705;28;20044;-47
2022/01/25 03:31:10;;;;;;;135.98;59.95;;;0.80;99.90;;;;;;5014075;28;20714;-47
2022/01/25 03:33:36;;;;;;;135.20;59.55;;;0.80;99.90;;;;;;5013503;28;20021;-47
2022/01/25 03:36:03;;;;;;;134.23;59.30;;;0.80;99.90;;;;;;5012221;28;20026;-47
2022/01/25 03:38:29;;;;;;;144.40;61.38;;;0.80;99.90;;;;;;5013554;28;20040;-47
2022/01/25 03:40:55;;;;;;;137.38;60.50;;;0.80;99.90;;;;;;5013151;28;20026;-47
2022/01/25 03:43:20;;;;;;;142.70;62.45;;;0.80;99.90;;;;;;5013692;28;20026;-47
2022/01/25 03:45:59;;;;;;;130.43;59.83;;;0.80;99.90;;;;;;5013395;28;20794;-47
2022/01/25 03:50:52;;;;;;;132.13;60.20;;;0.80;99.90;;;;;;5013568;28;20038;-47
2022/01/25 03:53:19;;;;;;;128.63;59.40;;;0.80;99.90;;;;;;5013562;28;20415;-47
2022/01/25 03:55:46;;;;;;;126.38;57.47;;;0.80;99.90;;;;;;5013776;28;20478;-47
2022/01/25 03:58:15;;;;;;;135.65;60.28;;;0.80;99.90;;;;;;5013223;28;20036;-47
2022/01/25 04:00:41;;;;;;;127.18;58.40;;;0.90;99.90;;;;;;5012694;28;20022;-47
2022/01/25 04:05:48;;;;;;;126.28;58.03;;;0.90;99.90;;;;;;5013282;28;20033;-47
2022/01/25 04:08:16;;;;;;;127.18;57.38;;;0.80;99.90;;;;;;5012827;28;20061;-47
2022/01/25 04:10:42;;;;;;;129.32;57.97;;;0.80;99.90;;;;;;5012810;28;20058;-46
2022/01/25 04:13:09;;;;;;;132.43;60.80;;;0.80;99.90;;;;;;5012987;28;20065;-46
2022/01/25 04:15:36;;;;;;;133.43;58.67;;;0.90;99.90;;;;;;5013133;28;20025;-47
2022/01/25 04:18:28;;;;;;;126.05;58.08;;;0.90;99.90;;;;;;5012888;28;20545;-47
2022/01/25 04:21:24;;;;;;;123.53;57.35;;;0.90;99.90;;;;;;5012247;28;20554;-47
2022/01/25 04:26:18;;;;;;;128.18;57.83;;;0.90;99.90;;;;;;5012617;28;20145;-47
2022/01/25 04:28:44;;;;;;;126.53;58.72;;;0.90;99.90;;;;;;5010964;28;20077;-47
2022/01/25 04:31:10;;;;;;;125.18;57.05;;;0.90;99.90;;;;;;5012307;28;20034;-46
2022/01/25 04:33:42;;;;;;;134.88;60.22;;;0.90;99.90;;;;;;5012517;28;20113;-46
2022/01/25 04:49:50;;;;;;;124.55;55.60;;;0.90;99.90;;;;;;5012082;28;20562;-47
2022/01/25 04:52:19;;;;;;;129.52;57.33;;;1.00;99.90;;;;;;5012524;28;20030;-47
2022/01/25 04:55:09;;;;;;;131.98;59.67;;;1.10;99.90;;;;;;5012129;28;20575;-46
2022/01/25 04:57:48;;;;;;;130.43;57.70;;;1.40;99.90;;;;;;5011988;28;20034;-46
2022/01/25 05:00:20;;;;;;;139.50;61.55;;;1.40;99.90;;;;;;5011411;28;20391;-46
2022/01/25 05:03:06;;;;;;;160.88;64.22;;;1.50;99.90;;;;;;5011450;28;20342;-47
2022/01/25 05:05:37;;;;;;;160.18;61.65;;;1.60;99.90;;;;;;5011724;28;20032;-46
2022/01/25 05:10:46;;;;;;;166.38;60.22;;;1.40;99.90;;;;;;5011368;28;20491;-47
2022/01/25 05:13:36;;;;;;;191.80;64.05;;;1.40;99.90;;;;;;5011301;28;20052;-47
2022/01/25 05:16:15;;;;;;;230.23;57.88;;;1.40;99.90;;;;;;5010990;28;20076;-46
2022/01/25 05:18:45;;;;;;;241.55;59.47;;;1.30;99.90;;;;;;5011415;28;20026;-46
2022/01/25 05:23:55;;;;;;;203.05;60.20;;;1.10;99.90;;;;;;5011441;28;20056;-47
2022/01/25 05:26:22;;;;;;;210.70;58.05;;;1.10;99.90;;;;;;5012054;28;20025;-46
2022/01/25 05:28:47;;;;;;;251.45;59.72;;;1.10;99.90;;;;;;5011174;28;20046;-47
2022/01/25 05:31:13;;;;;;;328.83;60.95;;;1.20;99.90;;;;;;5010523;28;20034;-47
2022/01/25 05:33:38;;;;;;;327.45;66.38;;;1.20;99.90;;;;;;5010040;28;20033;-46
2022/01/25 05:36:04;;;;;;;330.63;65.03;;;1.30;99.90;;;;;;5010800;28;20029;-46
2022/01/25 05:38:30;;;;;;;376.10;67.45;;;1.30;99.90;;;;;;5011395;28;20519;-47
2022/01/25 05:41:01;;;;;;;395.48;68.53;;;1.30;99.90;;;;;;5011094;28;20041;-46
2022/01/25 05:46:15;;;;;;;348.25;67.78;;;1.50;99.90;;;;;;5011497;28;20037;-46
2022/01/25 05:48:41;;;;;;;386.90;64.55;;;1.20;99.90;;;;;;5009950;28;20033;-46
2022/01/25 05:51:07;;;;;;;311.33;64.65;;;1.10;99.90;;;;;;5011478;28;20486;-46
2022/01/25 05:53:34;;;;;;;426.85;67.68;;;1.10;99.90;;;;;;5012565;28;20129;-46
2022/01/25 05:55:59;;;;;;;271.42;64.20;;;1.20;99.90;;;;;;5011160;28;20037;-46
2022/01/25 05:58:25;;;;;;;324.48;64.13;;;1.30;99.90;;;;;;5010964;28;20018;-46
2022/01/25 06:00:51;;;;;;;406.25;65.18;;;1.20;99.90;;;;;;5010668;28;20037;-46
2022/01/25 06:03:17;;;;;;;321.73;62.25;;;1.20;99.90;;;;;;5011271;28;20100;-46
2022/01/25 06:05:43;;;;;;;343.33;63.13;;;1.30;99.90;;;;;;5011270;28;20065;-46
2022/01/25 06:08:09;;;;;;;486.10;65.63;;;1.30;99.90;;;;;;5010851;28;20022;-46
2022/01/25 06:10:35;;;;;;;443.13;65.38;;;1.20;99.90;;;;;;5011117;28;20076;-46
2022/01/25 06:13:00;;;;;;;374.67;57.53;;;1.10;99.90;;;;;;5011172;28;20030;-46
2022/01/25 06:15:26;;;;;;;569.90;68.43;;;1.20;99.90;;;;;;5010923;28;20034;-46
2022/01/25 06:17:52;;;;;;;282.63;54.63;;;1.20;99.90;;;;;;5010485;28;20502;-46
2022/01/25 06:20:18;;;;;;;285.58;61.22;;;1.20;99.90;;;;;;5010832;28;20034;-46
2022/01/25 06:22:44;;;;;;;284.20;60.10;;;1.20;99.90;;;;;;5011142;28;20088;-46
2022/01/25 06:25:11;;;;;;;230.40;61.08;;;1.10;99.90;;;;;;5011498;28;20513;-46
2022/01/25 06:27:42;;;;;;;202.80;55.70;;;1.20;99.90;;;;;;5010076;28;20613;-46
2022/01/25 06:30:13;;;;;;;309.92;55.80;;;1.10;99.90;;;;;;5010105;28;20025;-46
2022/01/25 06:32:39;;;;;;;237.60;53.33;;;1.30;99.90;;;;;;5009634;28;20302;-46
2022/01/25 06:35:06;;;;;;;318.73;54.67;;;1.30;99.90;;;;;;5010914;28;20068;-45
2022/01/25 06:37:32;;;;;;;210.32;52.80;;;1.30;99.90;;;;;;5009940;28;20034;-46
2022/01/25 06:39:58;;;;;;;327.73;53.90;;;1.40;99.90;;;;;;5011890;28;20041;-46
2022/01/25 06:42:27;;;;;;;254.05;50.88;;;1.30;99.90;;;;;;5015135;28;20033;-46
2022/01/25 06:44:56;;;;;;;288.63;53.22;;;1.30;99.90;;;;;;5016365;28;20030;-46
2022/01/25 06:47:22;;;;;;;302.25;52.28;;;1.30;99.90;;;;;;5028294;28;20033;-46
2022/01/25 06:49:47;;;;;;;266.50;52.47;;;1.50;99.90;;;;;;5029431;28;20037;-46
2022/01/25 06:52:13;;;;;;;224.27;51.17;;;1.50;99.90;;;;;;5033456;28;20026;-46
2022/01/25 06:54:39;;;;;;;252.93;50.78;;;1.50;99.90;;;;;;5027285;28;20037;-46
2022/01/25 06:57:05;;;;;;;333.50;50.33;;;1.30;99.90;;;;;;5024083;28;20036;-46
2022/01/25 06:59:31;;;;;;;207.65;47.67;;;1.40;99.90;;;;;;5032173;28;20390;-46
2022/01/25 07:01:56;;;;;;;170.32;45.45;;;1.50;99.90;;;;;;5022067;28;20493;-46
2022/01/25 07:04:22;;;;;;;174.45;46.65;;;1.50;99.90;;;;;;5016005;28;20495;-47
2022/01/25 07:06:47;;;;;;;192.32;45.13;;;1.50;99.90;;;;;;5015505;28;20029;-46
2022/01/25 07:09:13;;;;;;;314.05;45.78;;;1.60;99.90;;;;;;5019582;28;20088;-46
2022/01/25 07:11:38;;;;;;;178.18;43.72;;;1.70;99.90;;;;;;5019646;28;20033;-45
2022/01/25 07:14:04;;;;;;;161.68;41.25;;;1.70;99.90;;;;;;5017032;28;20487;-46
2022/01/25 07:16:30;;;;;;;305.48;44.78;;;1.70;99.90;;;;;;5021035;28;20029;-46
2022/01/25 07:18:56;;;;;;;176.18;38.20;;;1.90;99.90;;;;;;5019406;28;20025;-46
2022/01/25 07:21:21;;;;;;;246.55;44.92;;;1.90;99.90;;;;;;5011509;28;20044;-46
2022/01/25 07:23:47;;;;;;;164.88;42.63;;;1.80;99.90;;;;;;5018586;28;20063;-46
2022/01/25 07:26:13;;;;;;;262.42;42.83;;;1.80;99.90;;;;;;5016943;28;20021;-46
2022/01/25 07:28:38;;;;;;;287.73;42.25;;;1.90;99.90;;;;;;5013880;28;20127;-46
2022/01/25 07:31:04;;;;;;;204.93;40.58;;;1.90;99.90;;;;;;5017257;28;20034;-46
2022/01/25 07:33:30;;;;;;;241.48;42.10;;;1.80;99.90;;;;;;5014190;28;20064;-46
2022/01/25 07:35:56;;;;;;;351.02;46.00;;;1.80;99.90;;;;;;5013474;28;20112;-46
2022/01/25 07:38:22;;;;;;;249.98;41.38;;;1.80;99.90;;;;;;5016168;28;20052;-46
2022/01/25 07:40:48;;;;;;;430.95;49.42;;;1.80;99.90;;;;;;5016383;28;20037;-46
2022/01/25 07:43:14;;;;;;;311.52;41.90;;;1.80;99.90;;;;;;5016086;28;20028;-47
2022/01/25 07:45:41;;;;;;;232.55;44.22;;;1.90;99.90;;;;;;5028274;28;20029;-46
2022/01/25 07:48:10;;;;;;;219.82;42.47;;;1.90;99.90;;;;;;5015359;28;20622;-46
2022/01/25 07:50:38;;;;;;;192.63;40.92;;;1.80;99.90;;;;;;5016564;28;20521;-46
2022/01/25 07:53:03;;;;;;;267.27;42.70;;;1.70;99.90;;;;;;5014342;28;20068;-46
2022/01/25 07:55:29;;;;;;;245.82;45.65;;;1.90;99.90;;;;;;5016947;28;20704;-46
2022/01/25 07:57:55;;;;;;;256.08;44.70;;;1.80;99.90;;;;;;5020956;28;20478;-47
2022/01/25 08:00:21;;;;;;;223.98;41.78;;;1.80;99.90;;;;;;5021391;28;20021;-46
2022/01/25 08:02:47;;;;;;;244.15;43.60;;;1.80;99.90;;;;;;5019010;28;20671;-46
2022/01/25 08:05:18;;;;;;;223.73;41.50;;;1.90;99.90;;;;;;5025375;28;20029;-46
2022/01/25 08:07:44;;;;;;;176.90;41.47;;;1.80;99.90;;;;;;5032962;28;20022;-47
2022/01/25 08:10:10;;;;;;;236.73;43.63;;;1.80;99.90;;;;;;5027645;28;20140;-47
2022/01/25 08:12:36;;;;;;;211.60;42.80;;;1.90;99.90;;;;;;5016281;28;20026;-47
2022/01/25 08:15:04;;;;;;;208.30;43.47;;;1.90;99.90;;;;;;5016530;28;20033;-46
2022/01/25 08:17:30;;;;;;;199.88;40.10;;;2.00;99.90;;;;;;5017262;28;20040;-48
2022/01/25 08:19:55;;;;;;;299.40;43.65;;;2.00;99.90;;;;;;5018152;28;20022;-48
2022/01/25 08:22:21;;;;;;;200.25;40.35;;;2.10;99.90;;;;;;5022802;28;20029;-47
2022/01/25 08:24:47;;;;;;;217.00;41.72;;;2.00;99.90;;;;;;5015466;28;20411;-46
2022/01/25 08:27:14;;;;;;;207.85;41.45;;;2.20;99.90;;;;;;5019874;28;20671;-47
2022/01/25 08:29:39;;;;;;;233.45;40.72;;;2.30;99.90;;;;;;5015658;28;20050;-46
2022/01/25 08:32:06;;;;;;;335.00;44.28;;;2.40;99.90;;;;;;5016748;28;20450;-46
2022/01/25 08:34:31;;;;;;;203.40;44.40;;;2.60;99.90;;;;;;5016367;28;20124;-46
2022/01/25 08:36:58;;;;;;;193.15;44.38;;;2.80;99.90;;;;;;5018501;28;20149;-46
2022/01/25 08:39:26;;;;;;;244.52;43.35;;;2.60;99.90;;;;;;5015013;28;20025;-46
2022/01/25 08:41:52;;;;;;;251.55;43.92;;;2.50;99.90;;;;;;5015457;28;20022;-47
2022/01/25 08:44:18;;;;;;;273.10;42.35;;;2.50;99.90;;;;;;5018934;28;20036;-47
2022/01/25 08:46:44;;;;;;;184.23;40.42;;;2.40;99.90;;;;;;5020650;28;20029;-46
2022/01/25 08:49:10;;;;;;;183.00;42.28;;;2.50;99.90;;;;;;5019443;28;20396;-46
2022/01/25 08:51:35;;;;;;;195.57;42.38;;;2.40;99.90;;;;;;5020779;28;20040;-47
2022/01/25 08:54:01;;;;;;;173.48;38.38;;;2.30;99.90;;;;;;5023407;28;20025;-47
2022/01/25 08:56:26;;;;;;;195.10;41.40;;;2.40;99.90;;;;;;5021755;28;20018;-46
2022/01/25 08:58:52;;;;;;;205.50;43.85;;;2.50;99.90;;;;;;5014196;28;20264;-47
2022/01/25 09:01:18;;;;;;;193.70;45.28;;;2.40;99.90;;;;;;5020591;28;20025;-47
2022/01/25 09:03:44;;;;;;;187.65;42.40;;;2.40;99.90;;;;;;5020199;28;20014;-47
2022/01/25 09:06:09;;;;;;;148.23;43.50;;;2.60;99.90;;;;;;5022127;28;20034;-48
2022/01/25 09:08:35;;;;;;;174.98;41.33;;;2.60;99.90;;;;;;5018458;28;20026;-47
2022/01/25 09:11:04;;;;;;;184.45;42.40;;;2.70;99.90;;;;;;5021489;28;20089;-46
2022/01/25 09:13:30;;;;;;;164.63;41.35;;;2.80;99.90;;;;;;5013620;28;20340;-47
2022/01/25 09:15:56;;;;;;;180.80;42.65;;;2.80;99.90;;;;;;5011124;28;20391;-47
2022/01/25 09:18:22;;;;;;;163.90;41.05;;;2.80;99.90;;;;;;5014379;28;20033;-47
2022/01/25 09:20:47;;;;;;;199.75;45.80;;;2.90;99.90;;;;;;5013800;28;21302;-46
2022/01/25 09:23:16;;;;;;;146.55;41.10;;;2.90;99.90;;;;;;5017149;28;20133;-47
2022/01/25 09:25:42;;;;;;;138.77;40.47;;;2.90;99.90;;;;;;5018213;28;20048;-46
2022/01/25 09:28:07;;;;;;;164.13;41.90;;;2.80;99.90;;;;;;5017277;28;20034;-46
2022/01/25 09:30:33;;;;;;;167.73;42.40;;;2.60;99.90;;;;;;5016600;28;20040;-46
2022/01/25 09:32:59;;;;;;;165.95;42.78;;;2.70;99.90;;;;;;5012274;28;20064;-46
2022/01/25 09:35:25;;;;;;;149.30;46.10;;;2.70;99.90;;;;;;5012185;28;20033;-46
2022/01/25 09:37:51;;;;;;;160.50;44.90;;;2.70;99.90;;;;;;5018345;28;20092;-46
2022/01/25 09:40:17;;;;;;;153.65;43.75;;;2.90;99.90;;;;;;5014576;28;20033;-46
2022/01/25 09:42:44;;;;;;;164.18;46.63;;;3.10;99.90;;;;;;5022156;28;20309;-46
2022/01/25 09:45:10;;;;;;;152.40;41.88;;;3.10;99.90;;;;;;5013702;28;20061;-46
2022/01/25 09:47:39;;;;;;;142.85;41.40;;;3.10;99.90;;;;;;5015697;28;20451;-46
2022/01/25 09:50:06;;;;;;;122.00;41.45;;;3.00;99.90;;;;;;5017812;28;20037;-46
2022/01/25 09:52:32;;;;;;;132.90;42.55;;;2.90;99.90;;;;;;5020341;28;20036;-45
2022/01/25 09:55:01;;;;;;;138.90;44.80;;;3.20;99.90;;;;;;5023768;28;20390;-46
2022/01/25 09:57:27;;;;;;;141.98;44.42;;;3.20;99.90;;;;;;5018308;28;20056;-47
2022/01/25 09:59:56;;;;;;;145.93;47.22;;;3.40;99.90;;;;;;5020964;28;20037;-47
2022/01/25 10:02:56;;;;;;;126.70;41.95;;;3.30;99.90;;;;;;5013775;28;20548;-47
2022/01/25 10:05:33;;;;;;;121.22;41.97;;;3.40;99.90;;;;;;5006630;28;20398;-47
2022/01/25 10:08:08;;;;;;;118.13;40.58;;;3.40;99.90;;;;;;5013785;28;20029;-46
2022/01/25 10:10:40;;;;;;;117.35;41.45;;;3.30;99.90;;;;;;5015335;28;20429;-46
2022/01/25 10:13:21;;;;;;;118.35;41.63;;;3.00;99.90;;;;;;5017298;28;20390;-47
2022/01/25 10:15:56;;;;;;;116.75;41.72;;;3.00;99.90;;;;;;5016871;28;20034;-47
2022/01/25 10:18:22;;;;;;;107.00;40.72;;;3.10;99.90;;;;;;5017434;28;20042;-47
2022/01/25 10:20:51;;;;;;;125.38;41.13;;;3.00;99.90;;;;;;5017130;28;20494;-47
2022/01/25 10:23:20;;;;;;;127.78;42.30;;;2.90;99.90;;;;;;5016889;28;20052;-47
2022/01/25 10:25:47;;;;;;;141.07;41.55;;;2.80;99.90;;;;;;5018167;28;20026;-46
2022/01/25 10:28:15;;;;;;;136.13;43.20;;;2.70;99.90;;;;;;5022912;28;20034;-46
2022/01/25 10:30:49;;;;;;;160.13;44.22;;;2.60;99.90;;;;;;5024128;28;20041;-47
2022/01/25 10:33:39;;;;;;;148.90;41.10;;;2.70;99.90;;;;;;5021315;28;20029;-47
2022/01/25 10:36:12;;;;;;;149.90;44.95;;;3.00;99.90;;;;;;5020035;28;20390;-48
2022/01/25 10:38:40;;;;;;;146.07;43.80;;;3.10;99.90;;;;;;5014943;28;20486;-49
2022/01/25 10:41:09;;;;;;;142.75;44.45;;;3.00;99.90;;;;;;5017701;28;20037;-49
2022/01/25 10:43:37;;;;;;;121.55;42.53;;;3.10;99.90;;;;;;5027890;28;20078;-49
2022/01/25 10:46:16;;;;;;;117.55;40.33;;;3.20;99.90;;;;;;5022493;28;20050;-46
2022/01/25 10:48:53;;;;;;;107.95;41.75;;;3.00;99.90;;;;;;5018937;28;20048;-46
2022/01/25 10:51:27;;;;;;;137.73;42.55;;;2.90;99.90;;;;;;5021858;28;20057;-47
2022/01/25 10:54:01;;;;;;;129.95;42.17;;;3.10;99.90;;;;;;5014849;28;20672;-45
2022/01/25 10:56:32;;;;;;;136.07;45.45;;;3.10;99.90;;;;;;5021562;28;20049;-46
2022/01/25 10:59:01;;;;;;;133.10;43.45;;;3.20;99.90;;;;;;5015179;28;20447;-45
2022/01/25 11:01:39;;;;;;;161.90;47.03;;;3.40;99.90;;;;;;5024076;28;20032;-46
2022/01/25 11:04:14;;;;;;;150.32;44.95;;;3.50;99.90;;;;;;5022445;28;20524;-46
2022/01/25 11:06:40;;;;;;;145.68;44.53;;;3.40;99.90;;;;;;5023639;28;20032;-46
2022/01/25 11:09:10;;;;;;;121.20;44.65;;;3.50;99.90;;;;;;5017699;28;20506;-46
2022/01/25 11:11:46;;;;;;;115.03;42.30;;;3.40;99.90;;;;;;5019007;28;20033;-46
2022/01/25 11:16:58;;;;;;;129.00;42.92;;;3.50;99.90;;;;;;5019206;28;20450;-46
2022/01/25 11:19:25;;;;;;;127.07;41.60;;;3.60;99.90;;;;;;5014311;28;20249;-46
2022/01/25 11:21:52;;;;;;;129.25;42.08;;;3.40;99.90;;;;;;5015399;28;20072;-46
2022/01/25 11:24:19;;;;;;;139.82;47.28;;;3.60;99.90;;;;;;5019795;28;20018;-46
2022/01/25 11:26:48;;;;;;;126.93;45.42;;;3.80;99.90;;;;;;5018031;28;20115;-46
2022/01/25 11:29:14;;;;;;;131.27;44.15;;;3.90;99.90;;;;;;5020249;28;20399;-46
2022/01/25 11:31:52;;;;;;;135.90;44.95;;;4.00;99.90;;;;;;5020598;28;20089;-46
2022/01/25 11:34:23;;;;;;;130.10;45.05;;;3.70;99.90;;;;;;5017289;28;20049;-46
2022/01/25 11:36:56;;;;;;;138.77;47.45;;;3.80;99.90;;;;;;5023481;28;20045;-47
2022/01/25 11:39:25;;;;;;;126.53;44.55;;;3.90;99.90;;;;;;5018735;28;20044;-46
2022/01/25 11:42:00;;;;;;;124.07;45.22;;;3.70;99.90;;;;;;5017742;28;20026;-46
2022/01/25 11:44:26;;;;;;;131.30;44.70;;;3.70;99.90;;;;;;5019505;28;20121;-46
2022/01/25 11:46:58;;;;;;;132.65;47.47;;;3.90;99.90;;;;;;5015465;28;20029;-46
2022/01/25 11:49:25;;;;;;;126.80;46.53;;;4.20;99.90;;;;;;5015173;28;20028;-46
2022/01/25 11:52:12;;;;;;;116.25;45.38;;;4.20;99.90;;;;;;5019063;28;20145;-46
2022/01/25 11:54:38;;;;;;;115.85;44.42;;;4.10;99.90;;;;;;5016041;28;20037;-46
2022/01/25 11:57:25;;;;;;;119.20;46.33;;;4.20;99.90;;;;;;5017381;28;20010;-46
2022/01/25 11:59:57;;;;;;;118.05;43.88;;;4.10;99.90;;;;;;5013540;28;20372;-46
2022/01/25 12:02:41;;;;;;;123.20;46.75;;;3.90;99.90;;;;;;5017172;28;20535;-46
2022/01/25 12:05:09;;;;;;;119.85;47.85;;;4.00;99.90;;;;;;5013933;28;20083;-46
2022/01/25 12:07:40;;;;;;;119.93;47.10;;;3.90;99.90;;;;;;5018496;28;20014;-46
2022/01/25 12:10:36;;;;;;;110.20;44.60;;;3.90;99.90;;;;;;5016738;28;20025;-46
2022/01/25 12:13:11;;;;;;;113.68;44.15;;;3.80;99.90;;;;;;5017254;28;20501;-46
2022/01/25 12:15:36;;;;;;;133.10;51.00;;;3.70;99.90;;;;;;5011545;28;20030;-46
2022/01/25 12:18:02;;;;;;;128.00;49.08;;;3.80;99.90;;;;;;5017676;28;20029;-46
2022/01/25 12:20:29;;;;;;;112.20;47.08;;;3.80;99.90;;;;;;5018298;28;20100;-46
2022/01/25 12:23:06;;;;;;;122.57;48.65;;;4.00;99.90;;;;;;5017637;28;20029;-46
2022/01/25 12:25:48;;;;;;;118.80;49.03;;;4.00;99.90;;;;;;5011735;28;20052;-46
2022/01/25 12:28:30;;;;;;;130.18;51.47;;;4.00;99.90;;;;;;5017035;28;20053;-46
2022/01/25 12:31:00;;;;;;;114.68;49.58;;;4.00;99.90;;;;;;5015100;28;20033;-46
2022/01/25 12:33:28;;;;;;;129.35;52.35;;;4.10;99.90;;;;;;5018236;28;20123;-47
2022/01/25 12:36:03;;;;;;;134.15;52.83;;;4.10;99.90;;;;;;5012396;28;20124;-46
2022/01/25 12:38:37;;;;;;;127.80;50.88;;;4.40;99.90;;;;;;5018841;28;20055;-46
2022/01/25 12:41:18;;;;;;;134.00;54.47;;;4.30;99.90;;;;;;5017746;28;20388;-46
2022/01/25 12:43:53;;;;;;;127.35;55.15;;;4.20;99.90;;;;;;5016740;28;20376;-46
2022/01/25 12:46:20;;;;;;;125.93;53.55;;;4.20;99.90;;;;;;5017882;28;20438;-46
2022/01/25 12:48:50;;;;;;;122.60;52.15;;;4.20;99.90;;;;;;5017999;28;20285;-46
2022/01/25 12:51:31;;;;;;;125.22;55.05;;;4.30;99.90;;;;;;5014994;28;20026;-46
2022/01/25 12:53:59;;;;;;;129.80;54.00;;;4.30;99.90;;;;;;5015859;28;20025;-46
2022/01/25 12:56:32;;;;;;;124.25;52.95;;;4.30;99.90;;;;;;5014423;28;20497;-45
2022/01/25 12:59:02;;;;;;;127.82;54.45;;;4.20;99.90;;;;;;5020268;28;20087;-46
2022/01/25 13:01:27;;;;;;;121.15;56.50;;;4.20;99.90;;;;;;5016399;28;20232;-46
2022/01/25 13:03:56;;;;;;;126.15;54.13;;;4.20;99.90;;;;;;5013621;28;20546;-46
2022/01/25 13:06:24;;;;;;;119.65;53.05;;;4.30;99.90;;;;;;5015225;28;20022;-46
2022/01/25 13:09:06;;;;;;;121.88;53.58;;;4.50;99.90;;;;;;5014537;28;20439;-46
2022/01/25 13:14:18;;;;;;;;;;;4.60;99.90;;;;;;5011566;28;20420;-46
2022/01/25 13:16:52;;;;;;;123.88;53.55;;;4.60;99.90;;;;;;5014396;28;19924;-46
2022/01/25 13:19:24;;;;;;;137.02;56.85;;;4.50;99.90;;;;;;5018264;28;20037;-46
2022/01/25 13:21:57;;;;;;;130.25;56.17;;;4.40;99.90;;;;;;5016841;28;20033;-46
2022/01/25 13:24:28;;;;;;;135.60;57.42;;;4.40;99.90;;;;;;5015081;28;20503;-47
2022/01/25 13:27:04;;;;;;;142.45;60.72;;;4.40;99.90;;;;;;5012077;28;20442;-46
2022/01/25 13:32:30;;;;;;;128.30;57.00;;;4.20;99.90;;;;;;5014219;28;20044;-46
2022/01/25 13:35:03;;;;;;;127.38;57.03;;;4.20;99.90;;;;;;5012948;28;20025;-46
2022/01/25 13:37:29;;;;;;;137.65;58.50;;;4.30;99.90;;;;;;5013248;28;20052;-46
2022/01/25 13:39:58;;;;;;;132.48;57.25;;;4.50;99.90;;;;;;5018795;28;20486;-46
2022/01/25 13:42:30;;;;;;;138.23;58.30;;;4.60;99.90;;;;;;5011533;28;20029;-46
2022/01/25 13:48:05;;;;;;;136.20;56.83;;;4.60;99.90;;;;;;5015267;28;20036;-46
2022/01/25 13:50:33;;;;;;;136.02;58.63;;;4.60;99.90;;;;;;5015650;28;20041;-46
2022/01/25 13:52:58;;;;;;;144.43;58.08;;;4.50;99.90;;;;;;5015048;28;20029;-46
2022/01/25 13:55:24;;;;;;;125.75;55.90;;;4.50;99.90;;;;;;5015509;28;20040;-46
2022/01/25 13:57:50;;;;;;;134.55;57.30;;;4.30;99.90;;;;;;5016846;28;20052;-46
2022/01/25 14:00:17;;;;;;;136.57;55.95;;;4.30;99.90;;;;;;5017542;28;20441;-46
2022/01/25 14:02:51;;;;;;;136.32;58.92;;;4.70;99.90;;;;;;5015314;28;20026;-46
2022/01/25 14:05:17;;;;;;;133.93;58.47;;;4.80;99.90;;;;;;5011072;28;20229;-46
2022/01/25 14:07:51;;;;;;;130.32;55.70;;;4.60;99.90;;;;;;5016382;28;20253;-46
2022/01/25 14:10:23;;;;;;;126.85;56.70;;;4.50;99.90;;;;;;5013306;28;20029;-46
2022/01/25 14:23:54;;;;;;;124.57;54.15;;;4.50;99.90;;;;;;5016333;28;20028;-46
2022/01/25 14:26:21;;;;;;;134.75;58.83;;;4.50;99.90;;;;;;5016960;28;20115;-46
2022/01/25 14:28:54;;;;;;;130.95;56.13;;;4.70;99.90;;;;;;5019524;28;20041;-45
2022/01/25 14:31:23;;;;;;;142.50;59.20;;;4.70;99.90;;;;;;5016401;28;20063;-46
2022/01/25 14:34:05;;;;;;;129.00;54.25;;;4.80;99.90;;;;;;5015202;28;20033;-46
2022/01/25 14:36:32;;;;;;;132.93;55.38;;;4.70;99.90;;;;;;5014433;28;20067;-46